Aviation Digital Data Service (ADDS)

Output produced by METARs form (1445 UTC 29 July 2014)
found at http://aviationweather.gov/adds/metars/
 
KDFW 291120Z 2912/3018 06008KT P6SM BKN100 
     FM291800 12008KT P6SM BKN250